Flight Track Log - Related Links

Times and Time Zones

All times are in EDT time to prevent confusion due to time zone crossing. See the WBR2634 flight status page for this flight to view local times or setup timezone preferences in your user account.

Time Position Orientation Groundspeed Altitude Reporting Facility
EDT Latitude Longitude Course Direction KTS MPH feet Rate Location/Type
Mon 05:40:49 PM 40.8161 -91.0769 73° East 122 140 2,700  Level Chicago Center
Mon 05:41:00 PM 40.8443 -90.8227 72° East  Level FlightAware Approximate
Mon 05:41:51 PM 40.8256 -91.0358 73° East 117 135 3,400  Level Chicago Center
Mon 05:42:00 PM 40.8617 -90.7766 57° Northeast  Level FlightAware Approximate
Mon 05:42:53 PM 40.8361 -90.9900 73° East 124 143 4,300  Level Chicago Center
Mon 05:43:00 PM 40.8722 -90.7279 72° East  Level FlightAware Approximate
Mon 05:43:55 PM 40.8453 -90.9436 75° East 128 147 5,100  Level Chicago Center
Mon 05:44:00 PM 40.8845 -90.6785 73° East  Level FlightAware Approximate
Mon 05:44:57 PM 40.8564 -90.8989 72° East 128 147 6,000  Level Chicago Center
Mon 05:45:00 PM 40.8960 -90.6288 73° East  Level FlightAware Approximate
Mon 05:45:59 PM 40.8681 -90.8514 72° East 132 152 6,800  Level Chicago Center
Mon 05:46:00 PM 40.9076 -90.5791 73° East  Level FlightAware Approximate
Mon 05:47:01 PM 40.8836 -90.7933 70° East 137 158 7,400  Level Chicago Center
Mon 05:48:02 PM 40.8950 -90.7422 74° East 141 162 8,000 585 Climbing Chicago Center
Mon 05:49:04 PM 40.9086 -90.6917 70° East 143 165 8,600 484 Climbing Chicago Center
Mon 05:50:06 PM 40.9194 -90.6369 75° East 152 175 9,000 242 Climbing Chicago Center
Mon 05:51:08 PM 40.9317 -90.5803 74° East 156 180 9,100 -48 Climbing Chicago Center
Mon 05:52:10 PM 40.9475 -90.5258 69° East 157 181 8,900  Descending Chicago Center
Mon 05:53:12 PM 40.9575 -90.4706 77° East 157 181 9,100 145 Climbing Chicago Center
Mon 05:54:14 PM 40.9797 -90.4083 65° Northeast 156 180 9,200  Climbing Chicago Center
Mon 05:55:16 PM 40.9897 -90.3514 77° East 163 188 9,100 -97 Descending Chicago Center
Mon 05:56:18 PM 40.9992 -90.2919 78° East 165 190 9,000  Descending Chicago Center
Mon 05:57:20 PM 41.0125 -90.2344 73° East 165 190 9,100 48 Climbing Chicago Center
Mon 05:58:22 PM 41.0244 -90.1772 75° East 164 189 9,100  Level Chicago Center
Mon 05:59:24 PM 41.0378 -90.1203 73° East 164 189 9,100  Level Chicago Center
Mon 06:02:30 PM 41.0792 -89.9372 75° East 163 188 9,100  Level Chicago Center
Mon 06:03:32 PM 41.0911 -89.8806 74° East 163 188 9,100  Level Chicago Center
Mon 06:04:34 PM 41.1056 -89.8253 71° East 162 186 9,100  Level Chicago Center
Mon 06:05:36 PM 41.1175 -89.7692 74° East 161 185 9,100  Level Chicago Center
Mon 06:06:38 PM 41.1292 -89.7131 75° East 160 184 9,100 -48 Level Chicago Center
Mon 06:07:40 PM 41.1408 -89.6575 74° East 159 183 9,000  Descending Chicago Center
Mon 06:08:00 PM 41.1282 -89.6926 75° East  Level FlightAware Approximate
Mon 06:08:42 PM 41.1567 -89.5942 72° East 155 178 9,100  Level Chicago Center
Mon 06:09:44 PM 41.1767 -89.5444 62° Northeast 155 178 9,100 -48 Level Chicago Center
Mon 06:10:46 PM 41.1956 -89.4961 63° Northeast 150 173 9,000  Descending Chicago Center
Mon 06:11:48 PM 41.2156 -89.4467 62° Northeast 150 173 9,100 48 Climbing Chicago Center
Mon 06:12:50 PM 41.2369 -89.4003 58° Northeast 150 173 9,100  Level Chicago Center
Mon 06:13:52 PM 41.2547 -89.3478 66° East 150 173 9,100  Level Chicago Center
Mon 06:14:54 PM 41.2753 -89.2994 60° Northeast 151 174 9,100  Level Chicago Center
Mon 06:16:59 PM 41.3203 -89.1919 62° Northeast 151 174 9,100 -32 Level Chicago Center
Mon 06:18:01 PM 41.3422 -89.1372 62° Northeast 151 174 9,000  Descending Chicago Center
Mon 06:19:03 PM 41.3608 -89.0861 64° Northeast 151 174 9,100 48 Climbing Chicago Center
Mon 06:20:05 PM 41.3825 -89.0369 60° Northeast 152 175 9,100  Level Chicago Center
Mon 06:21:07 PM 41.4014 -88.9847 64° Northeast 153 176 9,100  Level Chicago Center
Mon 06:22:09 PM 41.4211 -88.9358 62° Northeast 153 176 9,100  Level Chicago Center
Mon 06:23:11 PM 41.4406 -88.8878 62° Northeast 151 174 9,100 -339 Level Chicago Center
Mon 06:24:13 PM 41.4633 -88.8275 63° Northeast 155 178 8,400 -532 Descending Chicago Center
Mon 06:25:15 PM 41.4861 -88.7725 61° Northeast 156 180 8,000 -242 Descending Chicago Center
Mon 06:26:17 PM 41.5053 -88.7219 63° Northeast 155 178 7,900  Descending Chicago Center
Mon 06:27:20 PM 41.5256 -88.6686 63° Northeast 151 174 8,000 48 Climbing Chicago Center
Mon 06:28:22 PM 41.5453 -88.6197 62° Northeast 151 174 8,000  Level Chicago Center
Mon 06:30:26 PM 41.5933 -88.5275 55° Northeast 147 169 8,000 -32 Level Chicago Center
Mon 06:31:28 PM 41.6186 -88.4847 52° Northeast 147 169 7,900  Descending Chicago Center
Mon 06:32:30 PM 41.6458 -88.4400 51° Northeast 147 169 8,000  Climbing Chicago Center
Mon 06:33:32 PM 41.6775 -88.4097 36° Northeast 141 162 7,900  Descending Chicago Center
Mon 06:34:34 PM 41.7119 -88.3764 36° Northeast 141 162 8,000  Climbing Chicago Center
Mon 06:35:36 PM 41.7431 -88.3431 39° Northeast 142 163 7,900 -290 Descending Chicago Center
Mon 06:36:38 PM 41.7775 -88.3150 31° Northeast 144 166 7,400 -576 Descending Chicago Center
Mon 06:37:41 PM 41.8189 -88.2911 23° Northeast 147 169 6,700 -624 Descending Chicago Center
Mon 06:38:43 PM 41.8544 -88.2664 27° Northeast 147 169 6,100 -677 Descending Chicago Center
Mon 06:39:45 PM 41.8944 -88.2389 27° Northeast 148 170 5,300 -726 Descending Chicago Center
Mon 06:40:47 PM 41.9272 -88.2028 39° Northeast 162 186 4,600 -726 Descending Chicago Center
Mon 06:41:49 PM 41.9525 -88.1469 59° Northeast 161 185 3,800 -774 Descending Chicago Center
Mon 06:42:51 PM 41.9636 -88.0875 76° East 174 200 3,000 -823 Descending Chicago Center
Mon 06:43:53 PM 41.9639 -88.0175 90° East 175 201 2,100 -871 Descending Chicago Center
Mon 06:44:55 PM 41.9647 -87.9625 89° East 152 175 1,200 -581 Descending Chicago Center
Mon 06:45:57 PM 41.9644 -87.9197 90° East 140 161 900 -290 Descending Chicago Center
Mon 06:47:00 PM 41.9667 -87.9000 37° Northeast  Level FlightAware Approximate
Mon 06:54:00 PM 41.9793 -87.9074 37° Northeast  Level Estimated

Login

Don't have an account? Register now (free) for customized features, flight alerts, and more!